sensor_id;sensor_type;location;lat;lon;timestamp;temperature;humidity
78779;DHT22;68121;52.404;5.318;2023-10-31T00:01:09;10.70;78.10
78779;DHT22;68121;52.404;5.318;2023-10-31T00:03:35;10.70;78.20
78779;DHT22;68121;52.404;5.318;2023-10-31T00:06:01;10.70;78.10
78779;DHT22;68121;52.404;5.318;2023-10-31T00:08:27;10.70;78.20
78779;DHT22;68121;52.404;5.318;2023-10-31T00:10:53;10.70;78.20
78779;DHT22;68121;52.404;5.318;2023-10-31T00:13:20;10.70;78.10
78779;DHT22;68121;52.404;5.318;2023-10-31T00:15:46;10.70;78.10
78779;DHT22;68121;52.404;5.318;2023-10-31T00:18:12;10.80;78.10
78779;DHT22;68121;52.404;5.318;2023-10-31T00:20:38;10.80;78.10
78779;DHT22;68121;52.404;5.318;2023-10-31T00:23:04;10.80;78.00
78779;DHT22;68121;52.404;5.318;2023-10-31T00:25:30;10.80;78.00
78779;DHT22;68121;52.404;5.318;2023-10-31T00:27:56;10.80;78.10
78779;DHT22;68121;52.404;5.318;2023-10-31T00:30:22;10.80;78.10
78779;DHT22;68121;52.404;5.318;2023-10-31T00:32:48;10.80;78.00
78779;DHT22;68121;52.404;5.318;2023-10-31T00:35:14;10.80;78.10
78779;DHT22;68121;52.404;5.318;2023-10-31T00:37:40;10.80;78.00
78779;DHT22;68121;52.404;5.318;2023-10-31T00:40:07;10.90;78.10
78779;DHT22;68121;52.404;5.318;2023-10-31T00:42:33;10.80;78.10
78779;DHT22;68121;52.404;5.318;2023-10-31T00:44:59;10.80;78.00
78779;DHT22;68121;52.404;5.318;2023-10-31T00:47:25;10.80;78.10
78779;DHT22;68121;52.404;5.318;2023-10-31T00:49:51;10.80;78.10
78779;DHT22;68121;52.404;5.318;2023-10-31T00:52:19;10.80;78.10
78779;DHT22;68121;52.404;5.318;2023-10-31T00:54:45;10.80;78.20
78779;DHT22;68121;52.404;5.318;2023-10-31T00:57:11;10.80;78.20
78779;DHT22;68121;52.404;5.318;2023-10-31T00:59:37;10.70;78.10
78779;DHT22;68121;52.404;5.318;2023-10-31T01:02:05;10.70;78.20
78779;DHT22;68121;52.404;5.318;2023-10-31T01:04:31;10.70;78.10
78779;DHT22;68121;52.404;5.318;2023-10-31T01:06:57;10.70;78.20
78779;DHT22;68121;52.404;5.318;2023-10-31T01:09:23;10.70;78.20
78779;DHT22;68121;52.404;5.318;2023-10-31T01:11:49;10.70;78.20
78779;DHT22;68121;52.404;5.318;2023-10-31T01:14:15;10.70;78.20
78779;DHT22;68121;52.404;5.318;2023-10-31T01:16:41;10.70;78.20
78779;DHT22;68121;52.404;5.318;2023-10-31T01:19:07;10.70;78.20
78779;DHT22;68121;52.404;5.318;2023-10-31T01:21:33;10.70;78.20
78779;DHT22;68121;52.404;5.318;2023-10-31T01:23:59;10.70;78.30
78779;DHT22;68121;52.404;5.318;2023-10-31T01:26:25;10.70;78.20
78779;DHT22;68121;52.404;5.318;2023-10-31T01:28:52;10.70;78.20
78779;DHT22;68121;52.404;5.318;2023-10-31T01:31:18;10.70;78.20
78779;DHT22;68121;52.404;5.318;2023-10-31T01:33:45;10.70;78.20
78779;DHT22;68121;52.404;5.318;2023-10-31T01:36:11;10.70;78.20
78779;DHT22;68121;52.404;5.318;2023-10-31T01:38:38;10.70;78.20
78779;DHT22;68121;52.404;5.318;2023-10-31T01:41:04;10.70;78.20
78779;DHT22;68121;52.404;5.318;2023-10-31T01:43:37;10.70;78.10
78779;DHT22;68121;52.404;5.318;2023-10-31T01:46:04;10.70;78.10
78779;DHT22;68121;52.404;5.318;2023-10-31T01:48:32;10.70;78.10
78779;DHT22;68121;52.404;5.318;2023-10-31T01:50:59;10.70;78.10
78779;DHT22;68121;52.404;5.318;2023-10-31T01:53:26;10.70;78.10
78779;DHT22;68121;52.404;5.318;2023-10-31T01:55:54;10.70;78.10
78779;DHT22;68121;52.404;5.318;2023-10-31T01:58:27;10.70;78.10
78779;DHT22;68121;52.404;5.318;2023-10-31T02:00:55;10.70;78.10
78779;DHT22;68121;52.404;5.318;2023-10-31T02:03:21;10.70;78.10
78779;DHT22;68121;52.404;5.318;2023-10-31T02:05:47;10.70;78.10
78779;DHT22;68121;52.404;5.318;2023-10-31T02:08:14;10.70;78.10
78779;DHT22;68121;52.404;5.318;2023-10-31T02:10:40;10.70;78.10
78779;DHT22;68121;52.404;5.318;2023-10-31T02:13:12;10.70;78.10
78779;DHT22;68121;52.404;5.318;2023-10-31T02:15:39;10.70;78.20
78779;DHT22;68121;52.404;5.318;2023-10-31T02:18:05;10.60;78.30
78779;DHT22;68121;52.404;5.318;2023-10-31T02:20:32;10.60;78.20
78779;DHT22;68121;52.404;5.318;2023-10-31T02:22:58;10.70;78.30
78779;DHT22;68121;52.404;5.318;2023-10-31T02:25:24;10.70;78.30
78779;DHT22;68121;52.404;5.318;2023-10-31T02:27:50;10.70;78.30
78779;DHT22;68121;52.404;5.318;2023-10-31T02:30:16;10.70;78.30
78779;DHT22;68121;52.404;5.318;2023-10-31T02:32:42;10.70;78.40
78779;DHT22;68121;52.404;5.318;2023-10-31T02:35:08;10.70;78.30
78779;DHT22;68121;52.404;5.318;2023-10-31T02:37:34;10.70;78.30
78779;DHT22;68121;52.404;5.318;2023-10-31T02:40:00;10.70;78.30
78779;DHT22;68121;52.404;5.318;2023-10-31T02:42:27;10.70;78.30
78779;DHT22;68121;52.404;5.318;2023-10-31T02:44:53;10.70;78.30
78779;DHT22;68121;52.404;5.318;2023-10-31T02:47:19;10.70;78.40
78779;DHT22;68121;52.404;5.318;2023-10-31T02:49:45;10.70;78.40
78779;DHT22;68121;52.404;5.318;2023-10-31T02:52:11;10.70;78.40
78779;DHT22;68121;52.404;5.318;2023-10-31T02:54:37;10.70;78.50
78779;DHT22;68121;52.404;5.318;2023-10-31T02:57:04;10.70;78.50
78779;DHT22;68121;52.404;5.318;2023-10-31T02:59:30;10.70;78.50
78779;DHT22;68121;52.404;5.318;2023-10-31T03:01:57;10.70;78.50
78779;DHT22;68121;52.404;5.318;2023-10-31T03:04:23;10.70;78.60
78779;DHT22;68121;52.404;5.318;2023-10-31T03:06:49;10.80;78.50
78779;DHT22;68121;52.404;5.318;2023-10-31T03:09:16;10.80;78.60
78779;DHT22;68121;52.404;5.318;2023-10-31T03:11:42;10.80;78.50
78779;DHT22;68121;52.404;5.318;2023-10-31T03:14:08;10.70;78.50
78779;DHT22;68121;52.404;5.318;2023-10-31T03:16:34;10.80;78.60
78779;DHT22;68121;52.404;5.318;2023-10-31T03:19:00;10.70;78.60
78779;DHT22;68121;52.404;5.318;2023-10-31T03:21:26;10.80;78.60
78779;DHT22;68121;52.404;5.318;2023-10-31T03:23:52;10.80;78.60
78779;DHT22;68121;52.404;5.318;2023-10-31T03:26:19;10.80;78.60
78779;DHT22;68121;52.404;5.318;2023-10-31T03:28:46;10.80;78.60
78779;DHT22;68121;52.404;5.318;2023-10-31T03:31:12;10.80;78.60
78779;DHT22;68121;52.404;5.318;2023-10-31T03:33:39;10.80;78.70
78779;DHT22;68121;52.404;5.318;2023-10-31T03:36:05;10.80;78.60
78779;DHT22;68121;52.404;5.318;2023-10-31T03:38:32;10.80;78.60
78779;DHT22;68121;52.404;5.318;2023-10-31T03:40:58;10.80;78.60
78779;DHT22;68121;52.404;5.318;2023-10-31T03:43:24;10.80;78.70
78779;DHT22;68121;52.404;5.318;2023-10-31T03:45:51;10.80;78.70
78779;DHT22;68121;52.404;5.318;2023-10-31T03:48:17;10.80;78.70
78779;DHT22;68121;52.404;5.318;2023-10-31T03:50:43;10.80;78.60
78779;DHT22;68121;52.404;5.318;2023-10-31T03:53:10;10.80;78.70
78779;DHT22;68121;52.404;5.318;2023-10-31T03:55:36;10.70;78.70
78779;DHT22;68121;52.404;5.318;2023-10-31T03:58:02;10.80;78.70
78779;DHT22;68121;52.404;5.318;2023-10-31T04:00:28;10.70;78.70
78779;DHT22;68121;52.404;5.318;2023-10-31T04:02:55;10.70;78.70
78779;DHT22;68121;52.404;5.318;2023-10-31T04:05:21;10.70;78.60
78779;DHT22;68121;52.404;5.318;2023-10-31T04:07:49;10.70;78.60
78779;DHT22;68121;52.404;5.318;2023-10-31T04:10:17;10.70;78.70
78779;DHT22;68121;52.404;5.318;2023-10-31T04:12:43;10.70;78.70
78779;DHT22;68121;52.404;5.318;2023-10-31T04:15:09;10.70;78.70
78779;DHT22;68121;52.404;5.318;2023-10-31T04:17:37;10.70;78.60
78779;DHT22;68121;52.404;5.318;2023-10-31T04:20:03;10.70;78.60
78779;DHT22;68121;52.404;5.318;2023-10-31T04:22:29;10.70;78.60
78779;DHT22;68121;52.404;5.318;2023-10-31T04:24:56;10.70;78.50
78779;DHT22;68121;52.404;5.318;2023-10-31T04:27:22;10.70;78.50
78779;DHT22;68121;52.404;5.318;2023-10-31T04:29:48;10.70;78.60
78779;DHT22;68121;52.404;5.318;2023-10-31T04:32:14;10.70;78.50
78779;DHT22;68121;52.404;5.318;2023-10-31T04:34:40;10.70;78.50
78779;DHT22;68121;52.404;5.318;2023-10-31T04:37:06;10.70;78.50
78779;DHT22;68121;52.404;5.318;2023-10-31T04:39:32;10.70;78.60
78779;DHT22;68121;52.404;5.318;2023-10-31T04:41:58;10.70;78.60
78779;DHT22;68121;52.404;5.318;2023-10-31T04:44:24;10.70;78.60
78779;DHT22;68121;52.404;5.318;2023-10-31T04:46:50;10.70;78.60
78779;DHT22;68121;52.404;5.318;2023-10-31T04:49:16;10.70;78.60
78779;DHT22;68121;52.404;5.318;2023-10-31T04:51:42;10.70;78.50
78779;DHT22;68121;52.404;5.318;2023-10-31T04:54:09;10.70;78.60
78779;DHT22;68121;52.404;5.318;2023-10-31T04:56:36;10.70;78.50
78779;DHT22;68121;52.404;5.318;2023-10-31T04:59:02;10.70;78.60
78779;DHT22;68121;52.404;5.318;2023-10-31T05:01:28;10.70;78.60
78779;DHT22;68121;52.404;5.318;2023-10-31T05:03:54;10.70;78.60
78779;DHT22;68121;52.404;5.318;2023-10-31T05:06:21;10.70;78.70
78779;DHT22;68121;52.404;5.318;2023-10-31T05:08:47;10.70;78.70
78779;DHT22;68121;52.404;5.318;2023-10-31T05:11:13;10.70;78.70
78779;DHT22;68121;52.404;5.318;2023-10-31T05:13:42;10.70;78.70
78779;DHT22;68121;52.404;5.318;2023-10-31T05:16:08;10.60;78.70
78779;DHT22;68121;52.404;5.318;2023-10-31T05:18:36;10.60;78.70
78779;DHT22;68121;52.404;5.318;2023-10-31T05:21:02;10.60;78.70
78779;DHT22;68121;52.404;5.318;2023-10-31T05:23:29;10.60;78.70
78779;DHT22;68121;52.404;5.318;2023-10-31T05:25:55;10.60;78.70
78779;DHT22;68121;52.404;5.318;2023-10-31T05:28:21;10.70;78.70
78779;DHT22;68121;52.404;5.318;2023-10-31T05:30:47;10.60;78.70
78779;DHT22;68121;52.404;5.318;2023-10-31T05:33:16;10.60;78.80
78779;DHT22;68121;52.404;5.318;2023-10-31T05:35:42;10.70;78.70
78779;DHT22;68121;52.404;5.318;2023-10-31T05:38:08;10.60;78.70
78779;DHT22;68121;52.404;5.318;2023-10-31T05:40:35;10.60;78.70
78779;DHT22;68121;52.404;5.318;2023-10-31T05:43:01;10.60;78.70
78779;DHT22;68121;52.404;5.318;2023-10-31T05:45:29;10.60;78.80
78779;DHT22;68121;52.404;5.318;2023-10-31T05:47:55;10.60;78.80
78779;DHT22;68121;52.404;5.318;2023-10-31T05:50:21;10.60;78.90
78779;DHT22;68121;52.404;5.318;2023-10-31T05:52:48;10.60;78.80
78779;DHT22;68121;52.404;5.318;2023-10-31T05:55:14;10.60;78.90
78779;DHT22;68121;52.404;5.318;2023-10-31T05:57:40;10.60;78.90
78779;DHT22;68121;52.404;5.318;2023-10-31T06:00:07;10.50;78.90
78779;DHT22;68121;52.404;5.318;2023-10-31T06:02:34;10.60;78.90
78779;DHT22;68121;52.404;5.318;2023-10-31T06:05:00;10.60;78.90
78779;DHT22;68121;52.404;5.318;2023-10-31T06:07:26;10.50;79.00
78779;DHT22;68121;52.404;5.318;2023-10-31T06:09:52;10.50;79.00
78779;DHT22;68121;52.404;5.318;2023-10-31T06:12:18;10.50;78.90
78779;DHT22;68121;52.404;5.318;2023-10-31T06:14:44;10.50;79.00
78779;DHT22;68121;52.404;5.318;2023-10-31T06:17:10;10.50;79.00
78779;DHT22;68121;52.404;5.318;2023-10-31T06:19:36;10.50;79.00
78779;DHT22;68121;52.404;5.318;2023-10-31T06:22:03;10.50;79.00
78779;DHT22;68121;52.404;5.318;2023-10-31T06:24:29;10.60;79.00
78779;DHT22;68121;52.404;5.318;2023-10-31T06:26:55;10.60;79.00
78779;DHT22;68121;52.404;5.318;2023-10-31T06:29:21;10.60;79.00
78779;DHT22;68121;52.404;5.318;2023-10-31T06:31:47;10.60;79.00
78779;DHT22;68121;52.404;5.318;2023-10-31T06:34:14;10.60;79.00
78779;DHT22;68121;52.404;5.318;2023-10-31T06:36:40;10.60;79.00
78779;DHT22;68121;52.404;5.318;2023-10-31T06:39:06;10.60;78.90
78779;DHT22;68121;52.404;5.318;2023-10-31T06:41:33;10.60;78.90
78779;DHT22;68121;52.404;5.318;2023-10-31T06:43:59;10.60;79.00
78779;DHT22;68121;52.404;5.318;2023-10-31T06:46:25;10.60;79.00
78779;DHT22;68121;52.404;5.318;2023-10-31T06:48:51;10.60;79.00
78779;DHT22;68121;52.404;5.318;2023-10-31T06:51:17;10.60;79.10
78779;DHT22;68121;52.404;5.318;2023-10-31T06:53:43;10.70;78.90
78779;DHT22;68121;52.404;5.318;2023-10-31T06:56:09;10.70;78.80
78779;DHT22;68121;52.404;5.318;2023-10-31T06:58:35;10.70;78.90
78779;DHT22;68121;52.404;5.318;2023-10-31T07:01:01;10.70;78.90
78779;DHT22;68121;52.404;5.318;2023-10-31T07:03:28;10.70;78.90
78779;DHT22;68121;52.404;5.318;2023-10-31T07:05:54;10.70;78.90
78779;DHT22;68121;52.404;5.318;2023-10-31T07:08:22;10.70;78.90
78779;DHT22;68121;52.404;5.318;2023-10-31T07:10:48;10.70;78.90
78779;DHT22;68121;52.404;5.318;2023-10-31T07:13:15;10.70;79.00
78779;DHT22;68121;52.404;5.318;2023-10-31T07:15:41;10.60;79.00
78779;DHT22;68121;52.404;5.318;2023-10-31T07:18:07;10.60;78.90
78779;DHT22;68121;52.404;5.318;2023-10-31T07:20:35;10.60;79.00
78779;DHT22;68121;52.404;5.318;2023-10-31T07:23:01;10.60;79.00
78779;DHT22;68121;52.404;5.318;2023-10-31T07:25:28;10.60;79.00
78779;DHT22;68121;52.404;5.318;2023-10-31T07:27:54;10.60;79.00
78779;DHT22;68121;52.404;5.318;2023-10-31T07:30:20;10.60;79.00
78779;DHT22;68121;52.404;5.318;2023-10-31T07:32:46;10.60;79.00
78779;DHT22;68121;52.404;5.318;2023-10-31T07:35:12;10.60;79.00
78779;DHT22;68121;52.404;5.318;2023-10-31T07:37:38;10.60;79.00
78779;DHT22;68121;52.404;5.318;2023-10-31T07:40:04;10.70;79.00
78779;DHT22;68121;52.404;5.318;2023-10-31T07:42:30;10.60;78.90
78779;DHT22;68121;52.404;5.318;2023-10-31T07:44:56;10.60;79.00
78779;DHT22;68121;52.404;5.318;2023-10-31T07:47:23;10.70;79.00
78779;DHT22;68121;52.404;5.318;2023-10-31T07:49:49;10.60;79.00
78779;DHT22;68121;52.404;5.318;2023-10-31T07:52:15;10.70;79.00
78779;DHT22;68121;52.404;5.318;2023-10-31T07:54:41;10.70;79.00
78779;DHT22;68121;52.404;5.318;2023-10-31T07:57:07;10.70;79.10
78779;DHT22;68121;52.404;5.318;2023-10-31T07:59:34;10.70;79.10
78779;DHT22;68121;52.404;5.318;2023-10-31T08:02:01;10.80;79.10
78779;DHT22;68121;52.404;5.318;2023-10-31T08:04:29;10.80;79.10
78779;DHT22;68121;52.404;5.318;2023-10-31T08:06:58;10.80;79.00
78779;DHT22;68121;52.404;5.318;2023-10-31T08:09:24;10.80;79.10
78779;DHT22;68121;52.404;5.318;2023-10-31T08:11:50;10.90;79.10
78779;DHT22;68121;52.404;5.318;2023-10-31T08:14:16;11.00;79.00
78779;DHT22;68121;52.404;5.318;2023-10-31T08:16:42;11.00;78.90
78779;DHT22;68121;52.404;5.318;2023-10-31T08:19:08;11.10;78.80
78779;DHT22;68121;52.404;5.318;2023-10-31T08:21:34;11.10;78.90
78779;DHT22;68121;52.404;5.318;2023-10-31T08:24:02;11.30;78.90
78779;DHT22;68121;52.404;5.318;2023-10-31T08:26:30;11.60;78.70
78779;DHT22;68121;52.404;5.318;2023-10-31T08:28:56;11.90;78.40
78779;DHT22;68121;52.404;5.318;2023-10-31T08:31:23;12.10;77.90
78779;DHT22;68121;52.404;5.318;2023-10-31T08:33:49;12.50;77.50
78779;DHT22;68121;52.404;5.318;2023-10-31T08:36:15;12.70;77.20
78779;DHT22;68121;52.404;5.318;2023-10-31T08:38:41;12.90;76.90
78779;DHT22;68121;52.404;5.318;2023-10-31T08:41:07;13.10;76.50
78779;DHT22;68121;52.404;5.318;2023-10-31T08:43:33;13.30;76.10
78779;DHT22;68121;52.404;5.318;2023-10-31T08:46:04;13.20;76.10
78779;DHT22;68121;52.404;5.318;2023-10-31T08:48:30;13.10;76.10
78779;DHT22;68121;52.404;5.318;2023-10-31T08:50:56;13.10;76.20
78779;DHT22;68121;52.404;5.318;2023-10-31T08:53:22;13.10;76.50
78779;DHT22;68121;52.404;5.318;2023-10-31T08:55:48;13.00;76.60
78779;DHT22;68121;52.404;5.318;2023-10-31T08:58:14;13.10;76.80
78779;DHT22;68121;52.404;5.318;2023-10-31T09:00:40;13.30;76.80
78779;DHT22;68121;52.404;5.318;2023-10-31T09:03:07;13.50;76.50
78779;DHT22;68121;52.404;5.318;2023-10-31T09:05:33;13.90;76.20
78779;DHT22;68121;52.404;5.318;2023-10-31T09:08:00;14.10;75.70
78779;DHT22;68121;52.404;5.318;2023-10-31T09:10:26;14.30;75.30
78779;DHT22;68121;52.404;5.318;2023-10-31T09:12:52;14.40;74.90
78779;DHT22;68121;52.404;5.318;2023-10-31T09:15:18;14.30;74.90
78779;DHT22;68121;52.404;5.318;2023-10-31T09:17:47;14.00;75.10
78779;DHT22;68121;52.404;5.318;2023-10-31T09:20:13;13.90;75.60
78779;DHT22;68121;52.404;5.318;2023-10-31T09:22:39;13.90;75.60
78779;DHT22;68121;52.404;5.318;2023-10-31T09:25:05;13.90;75.80
78779;DHT22;68121;52.404;5.318;2023-10-31T09:27:32;13.80;75.90
78779;DHT22;68121;52.404;5.318;2023-10-31T09:29:58;13.80;75.90
78779;DHT22;68121;52.404;5.318;2023-10-31T09:32:24;13.90;76.00
78779;DHT22;68121;52.404;5.318;2023-10-31T09:34:50;13.90;76.00
78779;DHT22;68121;52.404;5.318;2023-10-31T09:37:16;14.10;75.90
78779;DHT22;68121;52.404;5.318;2023-10-31T09:39:42;14.20;75.50
78779;DHT22;68121;52.404;5.318;2023-10-31T09:42:08;14.20;75.40
78779;DHT22;68121;52.404;5.318;2023-10-31T09:44:35;14.30;75.60
78779;DHT22;68121;52.404;5.318;2023-10-31T09:47:01;14.30;75.50
78779;DHT22;68121;52.404;5.318;2023-10-31T09:49:27;14.40;75.50
78779;DHT22;68121;52.404;5.318;2023-10-31T09:51:54;14.30;75.60
78779;DHT22;68121;52.404;5.318;2023-10-31T09:54:20;14.40;75.60
78779;DHT22;68121;52.404;5.318;2023-10-31T09:56:46;14.50;75.50
78779;DHT22;68121;52.404;5.318;2023-10-31T09:59:16;14.40;75.40
78779;DHT22;68121;52.404;5.318;2023-10-31T10:01:42;14.40;75.40
78779;DHT22;68121;52.404;5.318;2023-10-31T10:04:08;14.30;75.60
78779;DHT22;68121;52.404;5.318;2023-10-31T10:06:34;14.20;75.70
78779;DHT22;68121;52.404;5.318;2023-10-31T10:09:00;14.20;75.80
78779;DHT22;68121;52.404;5.318;2023-10-31T10:11:32;14.10;76.00
78779;DHT22;68121;52.404;5.318;2023-10-31T10:13:59;14.10;76.00
78779;DHT22;68121;52.404;5.318;2023-10-31T10:16:31;14.10;76.00
78779;DHT22;68121;52.404;5.318;2023-10-31T10:19:14;14.00;76.00
78779;DHT22;68121;52.404;5.318;2023-10-31T10:21:53;13.90;76.00
78779;DHT22;68121;52.404;5.318;2023-10-31T10:24:20;13.90;76.10
78779;DHT22;68121;52.404;5.318;2023-10-31T10:26:47;13.90;76.10
78779;DHT22;68121;52.404;5.318;2023-10-31T10:29:13;13.70;76.10
78779;DHT22;68121;52.404;5.318;2023-10-31T10:31:39;13.70;76.10
78779;DHT22;68121;52.404;5.318;2023-10-31T10:34:07;13.60;76.20
78779;DHT22;68121;52.404;5.318;2023-10-31T10:36:33;13.50;76.20
78779;DHT22;68121;52.404;5.318;2023-10-31T10:39:00;13.50;76.30
78779;DHT22;68121;52.404;5.318;2023-10-31T10:41:28;13.50;76.30
78779;DHT22;68121;52.404;5.318;2023-10-31T10:44:00;13.50;76.40
78779;DHT22;68121;52.404;5.318;2023-10-31T10:46:28;13.50;76.40
78779;DHT22;68121;52.404;5.318;2023-10-31T10:48:58;13.50;76.30
78779;DHT22;68121;52.404;5.318;2023-10-31T10:51:29;13.50;76.30
78779;DHT22;68121;52.404;5.318;2023-10-31T10:54:08;13.50;76.20
78779;DHT22;68121;52.404;5.318;2023-10-31T10:56:46;13.50;76.20
78779;DHT22;68121;52.404;5.318;2023-10-31T10:59:15;13.50;76.20
78779;DHT22;68121;52.404;5.318;2023-10-31T11:01:46;13.50;76.20
78779;DHT22;68121;52.404;5.318;2023-10-31T11:04:13;13.50;76.20
78779;DHT22;68121;52.404;5.318;2023-10-31T11:06:40;13.50;76.20
78779;DHT22;68121;52.404;5.318;2023-10-31T11:09:06;13.50;76.20
78779;DHT22;68121;52.404;5.318;2023-10-31T11:11:33;13.60;76.10
78779;DHT22;68121;52.404;5.318;2023-10-31T11:14:01;13.60;75.90
78779;DHT22;68121;52.404;5.318;2023-10-31T11:16:43;13.60;75.90
78779;DHT22;68121;52.404;5.318;2023-10-31T11:19:10;13.60;75.90
78779;DHT22;68121;52.404;5.318;2023-10-31T11:21:37;13.50;75.90
78779;DHT22;68121;52.404;5.318;2023-10-31T11:24:18;13.60;75.90
78779;DHT22;68121;52.404;5.318;2023-10-31T11:26:51;13.60;75.80
78779;DHT22;68121;52.404;5.318;2023-10-31T11:29:18;13.70;75.80
78779;DHT22;68121;52.404;5.318;2023-10-31T11:31:44;13.80;75.60
78779;DHT22;68121;52.404;5.318;2023-10-31T11:34:10;13.90;75.50
78779;DHT22;68121;52.404;5.318;2023-10-31T11:36:36;14.20;75.10
78779;DHT22;68121;52.404;5.318;2023-10-31T11:39:11;14.40;74.60
78779;DHT22;68121;52.404;5.318;2023-10-31T11:41:38;14.70;74.00
78779;DHT22;68121;52.404;5.318;2023-10-31T11:44:05;14.90;73.60
78779;DHT22;68121;52.404;5.318;2023-10-31T11:46:31;15.20;73.20
78779;DHT22;68121;52.404;5.318;2023-10-31T11:48:57;15.50;72.80
78779;DHT22;68121;52.404;5.318;2023-10-31T11:51:24;15.60;72.40
78779;DHT22;68121;52.404;5.318;2023-10-31T11:53:50;15.90;72.10
78779;DHT22;68121;52.404;5.318;2023-10-31T11:56:16;16.10;71.80
78779;DHT22;68121;52.404;5.318;2023-10-31T11:58:43;16.40;71.40
78779;DHT22;68121;52.404;5.318;2023-10-31T12:01:10;16.50;71.10
78779;DHT22;68121;52.404;5.318;2023-10-31T12:03:38;16.60;70.60
78779;DHT22;68121;52.404;5.318;2023-10-31T12:06:06;16.60;70.30
78779;DHT22;68121;52.404;5.318;2023-10-31T12:08:35;16.70;70.10
78779;DHT22;68121;52.404;5.318;2023-10-31T12:11:11;16.80;69.70
78779;DHT22;68121;52.404;5.318;2023-10-31T12:13:39;16.90;69.40
78779;DHT22;68121;52.404;5.318;2023-10-31T12:16:07;16.90;69.20
78779;DHT22;68121;52.404;5.318;2023-10-31T12:18:34;16.90;69.10
78779;DHT22;68121;52.404;5.318;2023-10-31T12:21:01;17.00;69.00
78779;DHT22;68121;52.404;5.318;2023-10-31T12:23:27;17.00;68.90
78779;DHT22;68121;52.404;5.318;2023-10-31T12:25:54;17.20;68.70
78779;DHT22;68121;52.404;5.318;2023-10-31T12:28:24;17.40;68.30
78779;DHT22;68121;52.404;5.318;2023-10-31T12:30:52;17.40;67.80
78779;DHT22;68121;52.404;5.318;2023-10-31T12:33:21;17.40;67.40
78779;DHT22;68121;52.404;5.318;2023-10-31T12:35:48;17.30;67.00
78779;DHT22;68121;52.404;5.318;2023-10-31T12:38:15;17.20;66.90
78779;DHT22;68121;52.404;5.318;2023-10-31T12:40:43;17.20;66.80
78779;DHT22;68121;52.404;5.318;2023-10-31T12:43:10;17.20;66.80
78779;DHT22;68121;52.404;5.318;2023-10-31T12:45:36;17.30;66.50
78779;DHT22;68121;52.404;5.318;2023-10-31T12:48:04;17.20;66.20
78779;DHT22;68121;52.404;5.318;2023-10-31T12:50:32;17.10;66.20
78779;DHT22;68121;52.404;5.318;2023-10-31T12:52:58;17.00;66.30
78779;DHT22;68121;52.404;5.318;2023-10-31T12:55:30;16.70;66.50
78779;DHT22;68121;52.404;5.318;2023-10-31T12:57:57;16.60;66.70
78779;DHT22;68121;52.404;5.318;2023-10-31T13:00:31;16.40;66.90
78779;DHT22;68121;52.404;5.318;2023-10-31T13:03:05;16.30;66.90
78779;DHT22;68121;52.404;5.318;2023-10-31T13:05:32;16.10;67.10
78779;DHT22;68121;52.404;5.318;2023-10-31T13:08:02;16.00;67.40
78779;DHT22;68121;52.404;5.318;2023-10-31T13:10:30;15.90;67.60
78779;DHT22;68121;52.404;5.318;2023-10-31T13:12:59;15.80;67.70
78779;DHT22;68121;52.404;5.318;2023-10-31T13:15:25;15.80;67.70
78779;DHT22;68121;52.404;5.318;2023-10-31T13:17:52;15.70;67.70
78779;DHT22;68121;52.404;5.318;2023-10-31T13:20:20;15.60;67.70
78779;DHT22;68121;52.404;5.318;2023-10-31T13:22:46;15.50;67.70
78779;DHT22;68121;52.404;5.318;2023-10-31T13:25:14;15.40;67.80
78779;DHT22;68121;52.404;5.318;2023-10-31T13:27:43;15.30;68.00
78779;DHT22;68121;52.404;5.318;2023-10-31T13:30:10;15.20;68.10
78779;DHT22;68121;52.404;5.318;2023-10-31T13:32:37;15.00;68.30
78779;DHT22;68121;52.404;5.318;2023-10-31T13:35:07;14.80;68.70
78779;DHT22;68121;52.404;5.318;2023-10-31T13:37:36;14.60;69.00
78779;DHT22;68121;52.404;5.318;2023-10-31T13:40:03;14.50;69.40
78779;DHT22;68121;52.404;5.318;2023-10-31T13:42:29;14.40;69.70
78779;DHT22;68121;52.404;5.318;2023-10-31T13:44:55;14.20;69.90
78779;DHT22;68121;52.404;5.318;2023-10-31T13:47:22;14.20;70.10
78779;DHT22;68121;52.404;5.318;2023-10-31T13:49:48;14.10;70.20
78779;DHT22;68121;52.404;5.318;2023-10-31T13:52:14;14.00;70.30
78779;DHT22;68121;52.404;5.318;2023-10-31T13:54:41;14.00;70.30
78779;DHT22;68121;52.404;5.318;2023-10-31T13:57:07;14.00;70.30
78779;DHT22;68121;52.404;5.318;2023-10-31T13:59:33;13.90;70.50
78779;DHT22;68121;52.404;5.318;2023-10-31T14:02:00;13.90;70.70
78779;DHT22;68121;52.404;5.318;2023-10-31T14:04:26;13.90;70.70
78779;DHT22;68121;52.404;5.318;2023-10-31T14:06:52;14.00;70.70
78779;DHT22;68121;52.404;5.318;2023-10-31T14:09:18;13.90;70.80
78779;DHT22;68121;52.404;5.318;2023-10-31T14:11:44;13.90;71.00
78779;DHT22;68121;52.404;5.318;2023-10-31T14:14:10;13.90;71.10
78779;DHT22;68121;52.404;5.318;2023-10-31T14:16:42;13.90;71.30
78779;DHT22;68121;52.404;5.318;2023-10-31T14:19:10;13.90;71.40
78779;DHT22;68121;52.404;5.318;2023-10-31T14:21:36;13.90;71.40
78779;DHT22;68121;52.404;5.318;2023-10-31T14:24:03;13.80;71.60
78779;DHT22;68121;52.404;5.318;2023-10-31T14:26:30;13.80;71.60
78779;DHT22;68121;52.404;5.318;2023-10-31T14:28:58;13.70;71.80
78779;DHT22;68121;52.404;5.318;2023-10-31T14:31:24;13.70;72.20
78779;DHT22;68121;52.404;5.318;2023-10-31T14:33:50;13.90;72.00
78779;DHT22;68121;52.404;5.318;2023-10-31T14:36:16;13.90;71.90
78779;DHT22;68121;52.404;5.318;2023-10-31T14:38:42;13.70;71.90
78779;DHT22;68121;52.404;5.318;2023-10-31T14:41:09;13.60;72.20
78779;DHT22;68121;52.404;5.318;2023-10-31T14:43:35;13.50;72.50
78779;DHT22;68121;52.404;5.318;2023-10-31T14:46:02;13.30;72.70
78779;DHT22;68121;52.404;5.318;2023-10-31T14:48:28;13.30;73.00
78779;DHT22;68121;52.404;5.318;2023-10-31T14:50:55;13.20;73.20
78779;DHT22;68121;52.404;5.318;2023-10-31T14:53:23;13.10;73.40
78779;DHT22;68121;52.404;5.318;2023-10-31T14:55:49;13.10;73.50
78779;DHT22;68121;52.404;5.318;2023-10-31T14:58:15;13.10;73.70
78779;DHT22;68121;52.404;5.318;2023-10-31T15:00:41;13.10;73.80
78779;DHT22;68121;52.404;5.318;2023-10-31T15:03:07;13.10;73.90
78779;DHT22;68121;52.404;5.318;2023-10-31T15:05:33;13.00;73.80
78779;DHT22;68121;52.404;5.318;2023-10-31T15:07:59;12.90;73.90
78779;DHT22;68121;52.404;5.318;2023-10-31T15:10:26;12.80;74.00
78779;DHT22;68121;52.404;5.318;2023-10-31T15:12:56;12.80;74.10
78779;DHT22;68121;52.404;5.318;2023-10-31T15:15:22;12.70;74.10
78779;DHT22;68121;52.404;5.318;2023-10-31T15:17:49;12.70;74.10
78779;DHT22;68121;52.404;5.318;2023-10-31T15:20:17;12.60;74.10
78779;DHT22;68121;52.404;5.318;2023-10-31T15:22:43;12.50;74.00
78779;DHT22;68121;52.404;5.318;2023-10-31T15:25:10;12.50;74.00
78779;DHT22;68121;52.404;5.318;2023-10-31T15:27:36;12.40;74.00